Time;durP1;ratioP1;P1;durP2;ratioP2;P2;SDS_P1;SDS_P2;PMS_P1;PMS_P2;Temp;Humidity;BMP_temperature;BMP_pressure;BME280_temperature;BME280_humidity;BME280_pressure;Samples;Min_cycle;Max_cycle;Signal;HPM_P1;HPM_P2
2022/10/13 00:00:44;;;;;;;3.95;2.58;;;;;;;8.50;75.81;99959.66;5089868;28;20046;-49
2022/10/13 00:03:10;;;;;;;7.68;2.40;;;;;;;8.56;76.05;99969.03;5087586;28;20040;-52
2022/10/13 00:05:41;;;;;;;5.60;2.80;;;;;;;8.59;75.79;99974.13;5088544;28;20066;-48
2022/10/13 00:08:09;;;;;;;5.07;2.13;;;;;;;8.57;76.11;99959.53;5089793;28;20051;-49
2022/10/13 00:10:41;;;;;;;3.65;2.10;;;;;;;8.36;75.69;99935.78;5081603;28;20040;-48
2022/10/13 00:13:11;;;;;;;3.85;2.25;;;;;;;8.55;76.09;99969.91;5090410;28;20040;-51
2022/10/13 00:15:41;;;;;;;5.30;2.38;;;;;;;8.54;76.01;99965.59;5091685;28;20035;-51
2022/10/13 00:18:07;;;;;;;4.43;2.42;;;;;;;8.53;75.73;99971.66;5100669;28;20043;-49
2022/10/13 00:20:33;;;;;;;6.55;2.45;;;;;;;8.54;76.18;99965.59;5090559;28;20425;-48
2022/10/13 00:23:00;;;;;;;4.20;2.50;;;;;;;8.57;75.77;99970.75;5088388;28;20044;-49
2022/10/13 00:25:30;;;;;;;3.95;2.25;;;;;;;8.58;76.03;99974.19;5086105;28;20519;-49
2022/10/13 00:27:56;;;;;;;4.20;2.60;;;;;;;8.59;76.10;99966.34;5108242;28;20538;-50
2022/10/13 00:30:35;;;;;;;2.90;2.00;;;;;;;8.56;75.97;99963.00;5081695;28;20423;-53
2022/10/13 00:33:04;;;;;;;6.20;2.65;;;;;;;8.54;75.91;99968.19;5096253;28;20044;-48
2022/10/13 00:35:32;;;;;;;8.27;2.40;;;;;;;8.56;75.91;99978.53;5088186;28;20036;-50
2022/10/13 00:37:57;;;;;;;5.28;2.15;;;;;;;8.49;76.21;99972.63;5087829;28;20514;-49
2022/10/13 00:40:27;;;;;;;7.43;2.20;;;;;;;8.41;76.17;99980.56;5087621;28;20165;-49
2022/10/13 00:42:56;;;;;;;;;;;;;;;8.32;76.32;99977.34;5094253;28;20044;-50
2022/10/13 00:45:28;;;;;;;6.80;2.30;;;;;;;8.20;76.85;99980.13;5089410;28;20006;-49
2022/10/13 00:47:57;;;;;;;5.38;2.53;;;;;;;8.11;76.85;99986.34;5067758;28;20032;-48
2022/10/13 00:50:25;;;;;;;;;;;;;;;8.01;77.48;99987.38;5085787;28;20063;-47
2022/10/13 00:52:56;;;;;;;5.72;2.70;;;;;;;7.90;77.54;99994.53;5086700;28;20037;-48
2022/10/13 00:55:25;;;;;;;6.32;2.90;;;;;;;7.85;78.32;99991.16;5060505;28;20138;-50
2022/10/13 00:57:54;;;;;;;7.25;3.30;;;;;;;7.80;78.37;99998.16;5089108;28;20154;-49
2022/10/13 01:00:24;;;;;;;5.53;2.25;;;;;;;7.77;78.96;99993.88;5097684;28;20050;-52
2022/10/13 01:02:50;;;;;;;6.25;2.85;;;;;;;7.54;78.80;99955.47;5088651;28;20087;-50
2022/10/13 01:05:20;;;;;;;4.70;2.83;;;;;;;7.78;79.10;99997.31;5085132;28;20579;-52
2022/10/13 01:07:49;;;;;;;5.32;2.63;;;;;;;7.77;79.49;99996.47;5068590;28;20105;-49
2022/10/13 01:10:24;;;;;;;6.20;2.78;;;;;;;7.78;79.41;100005.94;5089151;28;20046;-49
2022/10/13 01:12:56;;;;;;;5.85;2.72;;;;;;;7.81;79.56;99994.66;5094272;28;20032;-53
2022/10/13 01:15:31;;;;;;;6.07;2.63;;;;;;;7.84;79.69;99992.91;5099501;28;20144;-50
2022/10/13 01:18:17;;;;;;;3.90;2.58;;;;;;;7.91;79.57;99998.78;5075550;28;20065;-49
2022/10/13 01:21:05;;;;;;;6.10;2.67;;;;;;;7.89;79.36;99998.84;5102650;28;20043;-54
2022/10/13 01:23:44;;;;;;;5.75;2.75;;;;;;;7.98;79.39;100003.00;5088074;28;20042;-50
2022/10/13 01:26:25;;;;;;;5.82;2.92;;;;;;;8.02;79.00;100010.66;5079929;28;20508;-50
2022/10/13 01:29:11;;;;;;;6.57;3.00;;;;;;;8.05;78.96;100000.28;5089627;28;20055;-48
2022/10/13 01:32:10;;;;;;;4.55;2.50;;;;;;;8.08;78.84;100007.09;5089065;28;20487;-51
2022/10/13 01:34:47;;;;;;;5.70;2.72;;;;;;;8.09;78.71;100006.22;5084400;28;20043;-49
2022/10/13 01:37:27;;;;;;;7.68;2.90;;;;;;;8.11;78.84;100001.03;5094110;28;20039;-53
2022/10/13 01:40:05;;;;;;;4.57;2.67;;;;;;;8.12;78.61;100005.31;5079334;28;20135;-51
2022/10/13 01:42:41;;;;;;;10.65;3.40;;;;;;;7.98;78.54;99984.88;5099252;27;20162;-47
2022/10/13 01:45:16;;;;;;;8.73;3.80;;;;;;;8.11;78.64;100001.88;5055579;28;20039;-49
2022/10/13 01:47:43;;;;;;;7.70;3.55;;;;;;;8.13;78.96;100007.88;5072489;28;20043;-50
2022/10/13 01:50:09;;;;;;;4.95;2.67;;;;;;;8.14;78.70;100001.81;5070733;28;20040;-49
2022/10/13 01:52:38;;;;;;;6.80;3.17;;;;;;;7.97;78.54;99971.06;5087700;28;20089;-48
2022/10/13 01:55:14;;;;;;;6.95;2.83;;;;;;;8.20;78.81;100006.03;5076704;28;20423;-49
2022/10/13 01:57:42;;;;;;;7.05;3.00;;;;;;;8.20;78.49;100008.63;5082368;28;20095;-49
2022/10/13 02:00:08;;;;;;;4.60;2.75;;;;;;;8.24;78.53;100011.13;5093823;28;20495;-50
2022/10/13 02:02:57;;;;;;;6.63;2.78;;;;;;;8.23;78.72;100006.81;5085782;28;20058;-49
2022/10/13 02:05:50;;;;;;;5.53;3.13;;;;;;;8.27;78.88;100010.22;5088000;28;20047;-52
2022/10/13 02:08:34;;;;;;;4.43;2.92;;;;;;;8.25;78.73;100010.22;5091578;28;20147;-50
2022/10/13 02:11:16;;;;;;;6.50;2.92;;;;;;;8.23;78.68;100012.00;5095130;28;20598;-52
2022/10/13 02:13:49;;;;;;;7.15;3.45;;;;;;;8.03;78.72;99975.28;5091968;28;20043;-53
2022/10/13 02:16:43;;;;;;;8.25;3.35;;;;;;;8.26;78.29;100021.44;5083421;28;20492;-51
2022/10/13 02:19:14;;;;;;;5.95;3.40;;;;;;;8.24;78.40;100013.69;5074403;28;20044;-50
2022/10/13 02:21:40;;;;;;;10.23;3.70;;;;;;;8.20;78.58;100016.38;5098858;28;20036;-52
2022/10/13 02:24:08;;;;;;;7.57;3.63;;;;;;;8.18;78.51;100011.22;5079624;28;20511;-53
2022/10/13 02:26:37;;;;;;;7.40;4.10;;;;;;;8.16;79.00;100018.19;5094046;28;20116;-50
2022/10/13 02:29:11;;;;;;;7.03;2.92;;;;;;;8.11;78.82;100022.59;5089595;28;20070;-50
2022/10/13 02:31:38;;;;;;;6.55;3.25;;;;;;;8.05;79.14;100025.31;5090590;28;20064;-50
2022/10/13 02:34:04;;;;;;;7.18;3.67;;;;;;;7.95;78.86;100023.78;5089268;28;20503;-48
2022/10/13 02:36:30;;;;;;;10.65;3.83;;;;;;;7.65;79.28;99996.69;5096181;28;20080;-51
2022/10/13 02:38:56;;;;;;;9.55;3.70;;;;;;;7.78;79.70;100018.88;5105303;28;20044;-51
2022/10/13 02:41:22;;;;;;;5.80;3.47;;;;;;;7.68;80.25;100026.84;5102492;28;20066;-49
2022/10/13 02:43:48;;;;;;;5.47;3.47;;;;;;;7.58;80.26;100029.59;5099864;28;20097;-54
2022/10/13 02:46:16;;;;;;;9.80;4.00;;;;;;;7.55;80.46;100031.34;5072165;28;20047;-50
2022/10/13 02:48:43;;;;;;;8.32;3.92;;;;;;;7.49;80.79;100028.84;5089354;28;20074;-49
2022/10/13 02:51:09;;;;;;;6.80;3.35;;;;;;;7.33;81.22;100006.72;5086976;28;20040;-49
2022/10/13 02:53:36;;;;;;;8.70;3.72;;;;;;;7.49;81.30;100036.63;5101150;28;20039;-50
2022/10/13 02:56:01;;;;;;;8.05;3.35;;;;;;;7.46;81.67;100032.38;5090403;28;20086;-51
2022/10/13 02:58:29;;;;;;;8.82;4.10;;;;;;;7.40;81.99;100032.47;5091563;28;20048;-49
2022/10/13 03:01:15;;;;;;;6.18;3.20;;;;;;;7.19;82.19;99994.88;5077758;28;20044;-49
2022/10/13 03:03:42;;;;;;;6.93;3.67;;;;;;;7.39;82.33;100030.75;5090427;28;20047;-47
2022/10/13 03:06:09;;;;;;;10.10;3.88;;;;;;;7.43;82.24;100032.41;5091235;28;20043;-50
2022/10/13 03:08:37;;;;;;;8.98;4.25;;;;;;;7.44;82.12;100020.31;5092927;28;20419;-49
2022/10/13 03:11:03;;;;;;;6.57;3.20;;;;;;;7.55;81.78;100033.94;5073090;28;20109;-50
2022/10/13 03:13:29;;;;;;;7.13;3.42;;;;;;;7.63;81.53;100034.69;5090857;28;20032;-49
2022/10/13 03:16:02;;;;;;;5.63;3.22;;;;;;;7.70;81.58;100030.22;5090871;28;20396;-50
2022/10/13 03:18:28;;;;;;;7.43;3.50;;;;;;;7.53;81.21;100002.09;5110740;28;20051;-49
2022/10/13 03:20:59;;;;;;;6.53;3.70;;;;;;;7.79;81.15;100043.03;5112686;28;20091;-50
2022/10/13 03:23:26;;;;;;;8.20;3.70;;;;;;;7.82;81.16;100040.38;5112209;28;20043;-51
2022/10/13 03:25:55;;;;;;;6.35;3.80;;;;;;;7.86;80.87;100034.25;5111383;28;20057;-52
2022/10/13 03:28:21;;;;;;;7.60;3.92;;;;;;;7.85;81.14;100035.16;5090654;28;20093;-50
2022/10/13 03:30:59;;;;;;;9.82;4.07;;;;;;;7.86;80.50;100039.44;5091660;28;20054;-48
2022/10/13 03:33:27;;;;;;;8.63;4.00;;;;;;;7.87;80.39;100038.56;5091604;28;20052;-49
2022/10/13 03:36:00;;;;;;;7.05;4.07;;;;;;;7.89;80.00;100040.25;5091659;28;20495;-49
2022/10/13 03:38:29;;;;;;;10.30;4.40;;;;;;;7.83;80.04;100042.09;5053620;28;20040;-51
2022/10/13 03:40:55;;;;;;;8.05;4.20;;;;;;;7.61;80.20;100014.00;5085090;28;20590;-52
2022/10/13 03:43:22;;;;;;;8.50;3.85;;;;;;;7.83;80.10;100047.28;5099162;28;20044;-51
2022/10/13 03:45:59;;;;;;;6.70;3.72;;;;;;;7.43;79.63;99975.50;5089990;28;20051;-51
2022/10/13 03:48:25;;;;;;;6.63;3.90;;;;;;;7.83;79.89;100048.13;5087800;28;20079;-49
2022/10/13 03:50:54;;;;;;;8.25;4.38;;;;;;;7.68;79.39;100011.31;5086123;28;20044;-57
2022/10/13 03:53:20;;;;;;;7.88;3.97;;;;;;;7.87;79.61;100051.50;5087965;28;20039;-49
2022/10/13 03:55:54;;;;;;;8.90;4.70;;;;;;;7.87;79.68;100049.78;5089677;28;20503;-50
2022/10/13 03:58:23;;;;;;;5.85;3.92;;;;;;;7.86;79.27;100052.38;5083598;28;20067;-50
2022/10/13 04:00:52;;;;;;;10.43;4.40;;;;;;;7.85;79.62;100053.28;5076841;28;20051;-49
2022/10/13 04:03:19;;;;;;;8.10;4.47;;;;;;;7.72;79.29;100044.88;5083110;28;20097;-53
2022/10/13 04:05:45;;;;;;;7.38;4.20;;;;;;;7.83;79.72;100062.81;5088590;28;20500;-54
2022/10/13 04:08:11;;;;;;;9.60;4.47;;;;;;;7.85;79.61;100063.66;5092071;28;20143;-48
2022/10/13 04:10:37;;;;;;;11.35;4.50;;;;;;;7.83;79.78;100061.06;5091084;28;20481;-51
2022/10/13 04:13:04;;;;;;;8.75;4.22;;;;;;;7.86;79.75;100065.31;5106607;28;20131;-48
2022/10/13 04:15:34;;;;;;;9.40;4.15;;;;;;;7.86;79.67;100067.91;5112043;28;20118;-53
2022/10/13 04:18:00;;;;;;;8.60;4.45;;;;;;;7.86;79.45;100068.78;5094746;28;20044;-49
2022/10/13 04:20:26;;;;;;;11.10;4.50;;;;;;;7.87;79.43;100077.41;5090785;28;20074;-52
2022/10/13 04:22:52;;;;;;;9.85;3.90;;;;;;;7.91;79.32;100076.47;5090643;28;20469;-51
2022/10/13 04:25:18;;;;;;;9.02;4.40;;;;;;;7.96;78.98;100078.09;5090866;28;20039;-53
2022/10/13 04:27:47;;;;;;;8.43;3.85;;;;;;;7.98;79.16;100072.88;5102816;28;20088;-50
2022/10/13 04:30:13;;;;;;;10.60;5.00;;;;;;;8.00;78.95;100081.50;5110339;28;20042;-58
2022/10/13 04:32:41;;;;;;;9.85;4.38;;;;;;;8.03;78.67;100076.25;5109627;28;20660;-54
2022/10/13 04:35:10;;;;;;;11.57;5.50;;;;;;;8.02;78.60;100077.97;5083634;28;20048;-52
2022/10/13 04:37:35;;;;;;;9.75;4.47;;;;;;;8.05;78.37;100075.38;5094914;28;20299;-51
2022/10/13 04:40:02;;;;;;;10.05;4.20;;;;;;;7.87;78.33;100042.00;5064173;28;20040;-50
2022/10/13 04:42:53;;;;;;;13.50;4.70;;;;;;;8.14;78.21;100086.41;5083081;28;20058;-50
2022/10/13 04:45:19;;;;;;;15.43;4.75;;;;;;;8.18;78.17;100085.47;5088303;28;20036;-49
2022/10/13 04:47:49;;;;;;;49.75;7.25;;;;;;;8.19;77.92;100082.88;5088192;28;20043;-51
2022/10/13 04:50:15;;;;;;;14.00;4.53;;;;;;;8.02;77.77;100048.66;5090166;28;20113;-52
2022/10/13 04:52:41;;;;;;;13.05;4.15;;;;;;;8.27;77.54;100080.97;5088682;28;20593;-49
2022/10/13 04:55:07;;;;;;;6.22;3.55;;;;;;;8.32;77.52;100083.53;5088483;28;20423;-51
2022/10/13 04:57:33;;;;;;;9.90;4.40;;;;;;;8.37;77.08;100086.91;5092711;28;20043;-47
2022/10/13 04:59:59;;;;;;;8.10;3.95;;;;;;;8.43;77.14;100089.34;5064645;28;20473;-50
2022/10/13 05:02:30;;;;;;;7.70;4.30;;;;;;;8.43;76.61;100087.59;5086960;28;20070;-49
2022/10/13 05:04:58;;;;;;;7.07;4.60;;;;;;;8.36;76.47;100088.63;5087420;28;20040;-53
2022/10/13 05:07:23;;;;;;;9.02;5.03;;;;;;;8.28;76.75;100067.16;5090432;28;20534;-51
2022/10/13 05:09:50;;;;;;;8.52;4.40;;;;;;;8.47;76.73;100094.47;5087919;28;20040;-51
2022/10/13 05:12:16;;;;;;;12.35;4.88;;;;;;;8.51;76.53;100090.06;5089038;28;20089;-54
2022/10/13 05:14:43;;;;;;;9.77;3.97;;;;;;;8.30;75.94;100060.25;5094563;28;20031;-52
2022/10/13 05:17:11;;;;;;;8.15;4.18;;;;;;;8.59;75.89;100101.13;5088439;28;20039;-50
2022/10/13 05:19:37;;;;;;;7.47;4.05;;;;;;;8.64;75.80;100101.03;5088120;28;20142;-52
2022/10/13 05:22:03;;;;;;;8.32;4.40;;;;;;;8.72;75.37;100115.56;5087929;28;20408;-52
2022/10/13 05:24:38;;;;;;;10.13;4.10;;;;;;;8.80;74.71;100113.66;5097225;28;20055;-52
2022/10/13 05:27:06;;;;;;;9.18;4.30;;;;;;;8.58;74.70;100064.91;5092137;28;20063;-54
2022/10/13 05:29:32;;;;;;;9.85;4.50;;;;;;;8.92;74.34;100102.19;5085981;28;20046;-48
2022/10/13 05:31:58;;;;;;;7.20;4.72;;;;;;;8.98;74.55;100106.41;5094960;28;20498;-51
2022/10/13 05:34:24;;;;;;;8.23;3.70;;;;;;;9.03;73.86;100110.59;5078189;28;20470;-53
2022/10/13 05:36:50;;;;;;;8.85;4.25;;;;;;;9.08;73.77;100103.56;5088353;28;20044;-52
2022/10/13 05:39:16;;;;;;;9.73;3.92;;;;;;;9.13;73.60;100106.91;5094885;28;20411;-54
2022/10/13 05:41:43;;;;;;;10.25;4.30;;;;;;;9.23;73.33;100100.66;5087138;28;20035;-53
2022/10/13 05:44:15;;;;;;;10.63;5.00;;;;;;;9.33;72.54;100111.66;5092001;28;20097;-53
2022/10/13 05:46:53;;;;;;;10.57;4.80;;;;;;;9.35;71.99;100102.13;5087970;28;20063;-54
2022/10/13 05:49:19;;;;;;;9.52;4.25;;;;;;;9.22;72.15;100111.03;5068170;28;20093;-52
2022/10/13 05:51:48;;;;;;;10.88;4.78;;;;;;;8.79;72.79;100074.81;5085502;28;20499;-52
2022/10/13 05:54:34;;;;;;;6.88;4.22;;;;;;;9.10;72.76;100111.34;5087224;28;20081;-53
2022/10/13 05:57:04;;;;;;;6.35;4.20;;;;;;;9.36;72.31;100122.00;5088586;28;20060;-54
2022/10/13 05:59:34;;;;;;;8.52;4.18;;;;;;;9.46;71.42;100114.84;5082203;28;20189;-49
2022/10/13 06:02:01;;;;;;;9.35;4.20;;;;;;;9.50;71.23;100104.34;5083595;28;20065;-55
2022/10/13 06:04:47;;;;;;;8.77;4.50;;;;;;;9.67;70.83;100103.97;5085106;28;20047;-60
2022/10/13 06:07:13;;;;;;;7.22;4.28;;;;;;;9.61;70.02;100117.94;5087072;28;20530;-52
2022/10/13 06:09:40;;;;;;;9.80;4.40;;;;;;;9.49;69.44;100065.44;5087140;28;20050;-51
2022/10/13 06:12:07;;;;;;;7.95;5.00;;;;;;;9.91;69.24;100099.91;5087819;28;20088;-54
2022/10/13 06:14:34;;;;;;;7.25;4.63;;;;;;;10.25;68.46;100125.94;5086882;28;20040;-51
2022/10/13 06:17:05;;;;;;;9.85;4.32;;;;;;;10.44;67.50;100101.16;5086743;28;20040;-51
2022/10/13 06:19:34;;;;;;;10.65;4.47;;;;;;;10.68;66.68;100117.84;5086191;28;20040;-55
2022/10/13 06:22:06;;;;;;;7.97;4.45;;;;;;;10.71;66.61;100125.53;5085168;28;20111;-55
2022/10/13 06:24:32;;;;;;;7.43;4.53;;;;;;;10.35;65.67;100081.47;5083696;28;20051;-57
2022/10/13 06:26:59;;;;;;;11.55;6.63;;;;;;;10.33;65.78;100139.56;5084462;28;20040;-57
2022/10/13 06:29:25;;;;;;;13.60;5.10;;;;;;;10.20;66.28;100128.66;5085670;28;20126;-53
2022/10/13 06:31:51;;;;;;;7.60;4.53;;;;;;;10.20;66.32;100126.03;5086894;28;20139;-52
2022/10/13 06:34:17;;;;;;;8.00;4.40;;;;;;;10.31;66.28;100131.78;5084750;28;20040;-53
2022/10/13 06:36:43;;;;;;;6.82;4.18;;;;;;;10.23;65.97;100105.16;5086163;28;20419;-56
2022/10/13 06:39:11;;;;;;;10.15;4.40;;;;;;;10.12;65.92;100099.34;5084111;28;20044;-53
2022/10/13 06:41:37;;;;;;;6.30;4.10;;;;;;;10.18;65.56;100099.22;5087423;28;20040;-51
2022/10/13 06:44:03;;;;;;;7.35;4.47;;;;;;;10.24;65.51;100130.25;5088743;28;20040;-52
2022/10/13 06:46:28;;;;;;;6.03;4.43;;;;;;;9.99;65.79;100090.19;5088579;28;20181;-53
2022/10/13 06:48:54;;;;;;;8.38;4.22;;;;;;;10.28;65.64;100136.22;5087315;28;20126;-52
2022/10/13 06:51:21;;;;;;;8.80;4.55;;;;;;;10.10;65.58;100093.38;5090184;28;20056;-54
2022/10/13 06:53:49;;;;;;;7.53;4.25;;;;;;;10.26;65.86;100138.84;5089257;28;20032;-51
2022/10/13 06:56:20;;;;;;;9.18;5.35;;;;;;;9.95;66.49;100140.47;5089967;28;20036;-50
2022/10/13 06:58:46;;;;;;;9.48;4.82;;;;;;;9.88;66.60;100136.34;5088895;28;20043;-51
2022/10/13 07:01:13;;;;;;;8.35;4.40;;;;;;;9.92;66.15;100105.06;5088901;28;20036;-57
2022/10/13 07:03:40;;;;;;;6.90;4.13;;;;;;;10.25;66.36;100139.78;5073669;28;20070;-56
2022/10/13 07:06:07;;;;;;;9.02;4.70;;;;;;;10.45;64.93;100105.44;5091614;28;20078;-53
2022/10/13 07:08:33;;;;;;;6.65;3.95;;;;;;;11.02;64.35;100136.78;5088832;28;20032;-52
2022/10/13 07:11:06;;;;;;;9.95;4.35;;;;;;;11.01;63.61;100096.91;5091668;28;20109;-53
2022/10/13 07:13:31;;;;;;;14.60;4.35;;;;;;;11.24;63.52;100119.66;5091512;28;20040;-50
2022/10/13 07:16:00;;;;;;;14.48;4.75;;;;;;;11.42;62.75;100126.03;5091551;28;20047;-52
2022/10/13 07:18:26;;;;;;;11.30;4.30;;;;;;;11.40;62.58;100139.09;5089967;28;20097;-54
2022/10/13 07:20:51;;;;;;;8.68;4.13;;;;;;;11.35;62.98;100143.59;5090625;28;20043;-55
2022/10/13 07:26:11;;;;;;;8.25;3.65;;;;;;;11.45;62.76;100157.19;5089990;28;20168;-52
2022/10/13 07:28:38;;;;;;;7.25;4.00;;;;;;;11.64;61.86;100153.13;5089815;28;20406;-54
2022/10/13 07:31:12;;;;;;;9.43;4.10;;;;;;;12.54;60.61;100148.41;5089439;28;20032;-51
2022/10/13 07:33:42;;;;;;;7.30;3.55;;;;;;;12.99;59.41;100155.50;5089825;28;20040;-52
2022/10/13 07:36:09;;;;;;;8.30;3.50;;;;;;;13.14;58.70;100158.41;5088353;28;20085;-55
2022/10/13 07:38:36;;;;;;;6.97;3.63;;;;;;;13.42;58.20;100157.38;5090012;28;20507;-52
2022/10/13 07:41:02;;;;;;;5.03;3.45;;;;;;;13.47;57.77;100152.81;5090785;28;20044;-54
2022/10/13 07:43:28;;;;;;;10.68;3.70;;;;;;;13.63;57.66;100160.91;5090911;28;20040;-51
2022/10/13 07:45:57;;;;;;;5.47;3.60;;;;;;;13.56;57.21;100162.91;5089574;28;20047;-52
2022/10/13 07:48:25;;;;;;;6.40;3.38;;;;;;;13.13;57.61;100163.72;5089571;28;20074;-53
2022/10/13 07:50:50;;;;;;;6.35;3.25;;;;;;;12.84;57.70;100156.91;5088162;28;20284;-55
2022/10/13 07:53:16;;;;;;;4.75;3.38;;;;;;;12.74;58.31;100168.56;5090673;28;20063;-53
2022/10/13 07:55:42;;;;;;;9.65;4.15;;;;;;;12.43;58.52;100136.63;5090624;28;20062;-58
2022/10/13 07:58:08;;;;;;;7.70;3.33;;;;;;;12.34;58.75;100139.56;5085372;28;20044;-55
2022/10/13 08:00:34;;;;;;;8.38;3.65;;;;;;;12.25;59.33;100170.25;5069998;28;20558;-54
2022/10/13 08:03:00;;;;;;;8.35;4.03;;;;;;;11.85;60.07;100165.50;5081216;28;20070;-60
2022/10/13 08:05:26;;;;;;;5.78;3.83;;;;;;;11.54;60.99;100171.66;5072771;28;20069;-55
2022/10/13 08:07:52;;;;;;;8.63;3.90;;;;;;;11.42;61.33;100172.88;5089232;28;20093;-54
2022/10/13 08:10:18;;;;;;;7.45;3.97;;;;;;;11.40;61.77;100165.16;5089271;28;20040;-53
2022/10/13 08:12:44;;;;;;;4.93;3.30;;;;;;;11.40;62.34;100174.69;5090677;28;20048;-53
2022/10/13 08:15:12;;;;;;;5.78;3.95;;;;;;;11.50;62.28;100170.06;5089425;28;20517;-53
2022/10/13 08:17:38;;;;;;;4.75;3.33;;;;;;;11.44;61.60;100124.22;5090979;28;20040;-53
2022/10/13 08:20:04;;;;;;;6.40;3.35;;;;;;;11.78;61.50;100177.00;5088959;28;20044;-63
2022/10/13 08:22:33;;;;;;;4.75;3.40;;;;;;;12.31;60.03;100170.03;5090150;28;20048;-54
2022/10/13 08:25:00;;;;;;;3.92;2.97;;;;;;;12.65;59.16;100180.19;5089639;28;20094;-54
2022/10/13 08:27:27;;;;;;;6.40;3.35;;;;;;;13.06;58.08;100183.06;5089143;28;20047;-56
2022/10/13 08:29:53;;;;;;;6.97;3.80;;;;;;;14.00;56.44;100175.09;5088515;28;20063;-53
2022/10/13 08:32:23;;;;;;;6.20;3.17;;;;;;;14.45;55.13;100181.09;5088959;28;20087;-55
2022/10/13 08:34:53;;;;;;;5.97;2.80;;;;;;;14.20;54.54;100179.50;5091376;28;20050;-53
2022/10/13 08:37:20;;;;;;;5.80;3.10;;;;;;;14.64;54.08;100175.06;5087129;28;20857;-52
2022/10/13 08:39:47;;;;;;;6.80;2.95;;;;;;;15.12;52.46;100179.06;5085737;28;20024;-54
2022/10/13 08:42:19;;;;;;;6.18;2.50;;;;;;;15.17;52.46;100177.94;5087915;28;20126;-52
2022/10/13 08:44:57;;;;;;;5.85;2.72;;;;;;;16.67;48.84;100133.03;5077040;28;20064;-53
2022/10/13 08:47:26;;;;;;;4.85;2.88;;;;;;;19.04;45.07;100177.41;5087960;28;20063;-54
2022/10/13 08:49:54;;;;;;;8.27;3.72;;;;;;;20.74;41.52;100182.19;5088943;28;20465;-52
2022/10/13 08:52:27;;;;;;;5.88;2.67;;;;;;;19.55;42.07;100133.78;5085313;28;20045;-53
2022/10/13 08:54:54;;;;;;;6.03;2.90;;;;;;;19.16;43.32;100158.19;5088722;28;20039;-52
2022/10/13 08:57:22;;;;;;;;;;;;;;;18.46;44.28;100183.50;5086146;28;20489;-51
2022/10/13 08:59:48;;;;;;;5.80;3.53;;;;;;;17.56;45.57;100171.16;5075275;28;20023;-53
2022/10/13 09:02:29;;;;;;;6.93;3.00;;;;;;;16.71;46.63;100178.34;5085859;28;20127;-53
2022/10/13 09:04:56;;;;;;;5.50;2.80;;;;;;;16.13;47.52;100180.38;5088439;28;20140;-53
2022/10/13 09:07:26;;;;;;;5.72;2.95;;;;;;;15.74;48.64;100170.06;5089386;28;20549;-52
2022/10/13 09:09:53;;;;;;;6.97;3.00;;;;;;;15.43;48.79;100168.00;5088382;28;20085;-51
2022/10/13 09:12:23;;;;;;;6.85;2.50;;;;;;;14.97;49.17;100133.44;5088531;28;20051;-53
2022/10/13 09:15:01;;;;;;;6.45;2.30;;;;;;;15.26;49.61;100179.25;5085579;28;20036;-57
2022/10/13 09:17:29;;;;;;;6.13;2.33;;;;;;;15.08;49.29;100174.84;5088266;28;20128;-51
2022/10/13 09:20:45;;;;;;;4.57;2.30;;;;;;;14.67;49.96;100177.53;5089606;28;20130;-54
2022/10/13 09:23:19;;;;;;;7.10;2.22;;;;;;;14.07;50.71;100157.41;5088998;28;20704;-51
2022/10/13 09:25:48;;;;;;;10.50;2.55;;;;;;;14.38;50.79;100175.31;5089299;28;20043;-52
2022/10/13 09:28:29;;;;;;;5.90;2.33;;;;;;;15.40;48.76;100157.66;5087806;28;20093;-52
2022/10/13 09:31:27;;;;;;;4.50;2.08;;;;;;;17.13;45.84;100181.34;5089366;28;20079;-50
2022/10/13 09:33:58;;;;;;;5.45;2.45;;;;;;;17.83;44.46;100168.78;5041375;28;20041;-50
2022/10/13 09:36:25;;;;;;;2.72;1.95;;;;;;;18.80;42.99;100178.88;5030054;28;20507;-52
2022/10/13 09:39:12;;;;;;;2.65;1.95;;;;;;;18.50;42.82;100177.13;5046297;28;20106;-52
2022/10/13 09:41:41;;;;;;;3.55;2.17;;;;;;;18.96;42.29;100172.59;5045651;28;20071;-52
2022/10/13 09:44:17;;;;;;;9.07;2.13;;;;;;;18.81;41.61;100173.53;5045913;28;20048;-58
2022/10/13 09:46:49;;;;;;;3.28;1.90;;;;;;;17.83;43.17;100171.44;5055050;28;20571;-53
2022/10/13 09:49:41;;;;;;;8.25;2.22;;;;;;;17.11;43.99;100177.97;5062265;28;20136;-55
2022/10/13 09:52:12;;;;;;;6.25;2.08;;;;;;;16.92;44.65;100174.59;5021073;28;20052;-52
2022/10/13 09:54:52;;;;;;;2.95;2.13;;;;;;;16.80;45.04;100170.00;5065711;28;20032;-51
2022/10/13 09:57:36;;;;;;;7.07;2.22;;;;;;;16.63;44.90;100131.50;5019218;28;20155;-46
2022/10/13 10:00:22;;;;;;;4.75;2.38;;;;;;;16.89;44.79;100167.75;5026693;28;20041;-54
2022/10/13 10:03:17;;;;;;;4.18;2.42;;;;;;;16.59;44.84;100158.00;5043015;28;20039;-54
2022/10/13 10:05:51;;;;;;;3.88;2.20;;;;;;;16.29;45.39;100163.81;5026626;28;20041;-53
2022/10/13 10:08:40;;;;;;;4.53;2.45;;;;;;;16.19;45.74;100162.59;5038373;28;20075;-52
2022/10/13 10:11:33;;;;;;;2.25;1.90;;;;;;;16.25;45.72;100169.31;5072043;28;20056;-54
2022/10/13 10:14:32;;;;;;;4.53;2.20;;;;;;;16.62;45.04;100156.06;5084979;28;20055;-50
2022/10/13 10:17:22;;;;;;;2.63;2.00;;;;;;;16.39;45.05;100164.19;5080143;28;20077;-50
2022/10/13 10:20:03;;;;;;;4.03;2.25;;;;;;;15.61;45.31;100104.25;5087541;28;20066;-54
2022/10/13 10:22:34;;;;;;;6.03;1.80;;;;;;;15.70;46.26;100163.28;5088902;28;20504;-53
2022/10/13 10:25:19;;;;;;;5.18;2.10;;;;;;;15.75;46.18;100154.28;5087522;28;20131;-56
2022/10/13 10:28:30;;;;;;;3.50;2.10;;;;;;;15.60;46.56;100139.25;5090505;28;20040;-51
2022/10/13 10:31:04;;;;;;;2.70;1.92;;;;;;;15.65;46.64;100168.72;5091407;28;20789;-56
2022/10/13 10:33:56;;;;;;;2.67;2.00;;;;;;;15.66;46.64;100168.66;5090929;28;20056;-54
2022/10/13 10:36:39;;;;;;;3.92;2.30;;;;;;;16.88;44.34;100125.81;5092754;28;20131;-54
2022/10/13 10:39:31;;;;;;;3.00;1.90;;;;;;;17.52;43.46;100175.72;5090992;28;20040;-57
2022/10/13 10:42:06;;;;;;;4.35;2.20;;;;;;;18.21;42.31;100167.47;5091270;28;20035;-52
2022/10/13 10:44:34;;;;;;;4.88;3.05;;;;;;;18.04;42.24;100176.31;5092453;28;20123;-55
2022/10/13 10:47:04;;;;;;;4.15;2.72;;;;;;;17.36;43.01;100172.25;5072752;28;20119;-56
2022/10/13 10:49:38;;;;;;;5.35;2.90;;;;;;;16.87;43.93;100171.38;5082857;28;20052;-56
2022/10/13 10:52:09;;;;;;;6.82;3.10;;;;;;;17.12;43.68;100176.16;5074490;28;20503;-49
2022/10/13 10:54:57;;;;;;;6.57;3.10;;;;;;;17.31;43.10;100166.38;5091093;28;20048;-54
2022/10/13 10:57:35;;;;;;;6.47;2.92;;;;;;;18.30;42.23;100172.19;5090887;28;20036;-55
2022/10/13 11:00:21;;;;;;;5.20;2.70;;;;;;;19.65;39.77;100174.44;5074122;28;20046;-55
2022/10/13 11:03:03;;;;;;;4.25;2.70;;;;;;;19.76;39.18;100173.78;5091103;28;20590;-52
2022/10/13 11:05:56;;;;;;;6.43;3.00;;;;;;;21.21;36.63;100175.44;5070750;28;20068;-53
2022/10/13 11:08:54;;;;;;;4.60;2.50;;;;;;;22.46;34.27;100167.97;5089173;28;20058;-53
2022/10/13 11:11:20;;;;;;;6.68;2.83;;;;;;;23.37;33.45;100179.44;5082600;28;20056;-52
2022/10/13 11:13:54;;;;;;;6.25;2.90;;;;;;;23.46;32.57;100175.22;5091613;28;20043;-53
2022/10/13 11:16:23;;;;;;;7.85;3.10;;;;;;;22.16;33.91;100171.13;5091681;28;20052;-56
2022/10/13 11:18:58;;;;;;;10.05;3.33;;;;;;;21.03;34.96;100174.91;5091779;28;20043;-53
2022/10/13 11:21:52;;;;;;;6.40;2.92;;;;;;;20.15;36.04;100165.88;5091631;28;20043;-56
2022/10/13 11:24:34;;;;;;;5.68;3.45;;;;;;;19.14;37.79;100169.78;5091763;28;20044;-56
2022/10/13 11:27:14;;;;;;;7.93;3.15;;;;;;;18.64;38.44;100160.53;5091543;28;20500;-55
2022/10/13 11:29:47;;;;;;;7.75;2.90;;;;;;;19.36;37.40;100165.72;5090403;28;20047;-54
2022/10/13 11:32:55;;;;;;;5.20;2.83;;;;;;;20.93;35.03;100152.69;5091319;28;20109;-54
2022/10/13 11:35:24;;;;;;;6.30;2.78;;;;;;;22.21;33.45;100144.28;5033530;28;20049;-57
2022/10/13 11:37:56;;;;;;;4.95;3.28;;;;;;;21.34;34.02;100155.97;5031335;28;20098;-56
2022/10/13 11:40:55;;;;;;;8.75;2.88;;;;;;;19.93;35.52;100159.50;5048670;28;20115;-51
2022/10/13 11:43:45;;;;;;;7.90;3.35;;;;;;;18.93;37.45;100143.81;5015454;28;20037;-53
2022/10/13 11:46:13;;;;;;;4.25;2.97;;;;;;;18.28;38.47;100154.78;5048509;28;20056;-52
2022/10/13 11:49:01;;;;;;;4.45;2.78;;;;;;;17.33;39.27;100148.72;5061757;28;20063;-55
2022/10/13 11:51:58;;;;;;;4.15;2.58;;;;;;;16.64;40.32;100148.09;5068552;28;20044;-56
2022/10/13 11:54:38;;;;;;;4.97;2.13;;;;;;;16.29;41.46;100155.09;5018672;28;20098;-55
2022/10/13 11:57:18;;;;;;;8.57;2.45;;;;;;;16.17;42.05;100153.09;5035000;28;20658;-55